createdAt,value
2018-09-29T00:00:58.152Z,11.30
2018-09-29T00:03:27.304Z,4.33
2018-09-29T00:05:56.404Z,8.67
2018-09-29T00:08:25.636Z,10.20
2018-09-29T00:10:54.752Z,10.78
2018-09-29T00:13:23.869Z,7.50
2018-09-29T00:15:53.090Z,8.47
2018-09-29T00:18:22.195Z,8.93
2018-09-29T00:20:51.304Z,8.07
2018-09-29T00:23:20.439Z,6.37
2018-09-29T00:25:49.565Z,8.38
2018-09-29T00:28:18.775Z,9.60
2018-09-29T00:30:47.981Z,8.20
2018-09-29T00:33:17.107Z,11.17
2018-09-29T00:35:46.268Z,10.00
2018-09-29T00:38:15.403Z,6.53
2018-09-29T00:40:44.528Z,7.40
2018-09-29T00:43:14.651Z,13.53
2018-09-29T00:45:43.818Z,7.93
2018-09-29T00:48:13.013Z,8.07
2018-09-29T00:50:42.647Z,8.20
2018-09-29T00:53:11.781Z,10.13
2018-09-29T00:55:40.904Z,6.10
2018-09-29T00:58:10.058Z,7.53
2018-09-29T01:00:39.180Z,9.20
2018-09-29T01:03:08.419Z,5.50
2018-09-29T01:05:37.525Z,5.78
2018-09-29T01:08:06.673Z,6.37
2018-09-29T01:10:35.781Z,7.90
2018-09-29T01:13:04.878Z,9.60
2018-09-29T01:15:34.116Z,8.93
2018-09-29T01:18:03.328Z,9.57
2018-09-29T01:20:32.504Z,10.17
2018-09-29T01:23:01.621Z,12.50
2018-09-29T01:25:30.766Z,7.13
2018-09-29T01:28:00.890Z,7.17
2018-09-29T01:30:30.181Z,8.93
2018-09-29T01:32:59.268Z,8.57
2018-09-29T01:35:28.437Z,6.97
2018-09-29T01:37:57.591Z,7.22
2018-09-29T01:40:26.721Z,6.80
2018-09-29T01:42:55.813Z,9.57
2018-09-29T01:45:24.965Z,10.47
2018-09-29T01:47:54.083Z,11.67
2018-09-29T01:50:23.236Z,7.53
2018-09-29T01:52:52.388Z,7.03
2018-09-29T01:55:21.515Z,8.87
2018-09-29T01:57:51.700Z,8.56
2018-09-29T02:00:20.916Z,7.80
2018-09-29T02:02:50.037Z,7.80
2018-09-29T02:05:19.284Z,11.47
2018-09-29T02:07:48.419Z,14.90
2018-09-29T02:10:17.994Z,5.07
2018-09-29T02:15:43.865Z,11.87
2018-09-29T02:18:13.024Z,12.87
2018-09-29T02:20:42.237Z,8.17
2018-09-29T02:23:11.379Z,6.72
2018-09-29T02:25:40.554Z,4.67
2018-09-29T02:28:09.663Z,4.23
2018-09-29T02:30:38.849Z,4.75
2018-09-29T02:33:08.009Z,7.58
2018-09-29T02:35:37.495Z,6.60
2018-09-29T02:38:06.957Z,7.47
2018-09-29T02:40:36.123Z,5.70
2018-09-29T02:43:05.747Z,11.77
2018-09-29T02:45:34.856Z,8.60
2018-09-29T02:48:03.956Z,5.27
2018-09-29T02:50:33.103Z,7.62
2018-09-29T02:53:02.437Z,7.20
2018-09-29T02:55:31.588Z,5.97
2018-09-29T02:58:00.704Z,4.50
2018-09-29T03:00:30.109Z,4.70
2018-09-29T03:02:59.304Z,4.67
2018-09-29T03:05:28.448Z,6.53
2018-09-29T03:07:57.602Z,9.78
2018-09-29T03:10:27.608Z,6.17
2018-09-29T03:12:56.760Z,4.80
2018-09-29T03:15:25.888Z,6.10
2018-09-29T03:17:54.979Z,7.17
2018-09-29T03:20:24.100Z,6.33
2018-09-29T03:22:53.236Z,8.70
2018-09-29T03:25:22.340Z,7.40
2018-09-29T03:27:51.590Z,6.40
2018-09-29T03:30:20.757Z,5.80
2018-09-29T03:32:49.836Z,7.22
2018-09-29T03:35:18.983Z,10.10
2018-09-29T03:37:48.163Z,7.93
2018-09-29T03:40:17.313Z,6.27
2018-09-29T03:42:46.420Z,7.97
2018-09-29T03:45:15.680Z,8.60
2018-09-29T03:47:44.792Z,3.77
2018-09-29T03:50:13.897Z,6.30
2018-09-29T03:52:43.688Z,5.42
2018-09-29T03:55:12.786Z,5.37
2018-09-29T03:57:41.916Z,5.30
2018-09-29T04:00:11.075Z,6.90
2018-09-29T04:02:40.208Z,8.83
2018-09-29T04:05:09.324Z,7.35
2018-09-29T04:07:38.574Z,5.53
2018-09-29T04:10:07.744Z,9.43
2018-09-29T04:12:36.881Z,11.30
2018-09-29T04:15:06.456Z,7.63
2018-09-29T04:17:35.556Z,8.10
2018-09-29T04:20:05.020Z,9.50
2018-09-29T04:22:34.173Z,9.80
2018-09-29T04:25:03.288Z,10.07
2018-09-29T04:27:32.512Z,11.00
2018-09-29T04:30:01.653Z,6.67
2018-09-29T04:32:30.801Z,9.87
2018-09-29T04:34:59.920Z,9.47
2018-09-29T04:37:29.068Z,6.17
2018-09-29T04:39:58.225Z,6.83
2018-09-29T04:42:27.369Z,7.72
2018-09-29T04:44:56.525Z,10.00
2018-09-29T04:47:25.644Z,7.17
2018-09-29T04:49:55.026Z,7.93
2018-09-29T04:52:24.129Z,6.57
2018-09-29T04:54:53.245Z,7.10
2018-09-29T04:57:22.345Z,8.60
2018-09-29T04:59:51.511Z,7.37
2018-09-29T05:02:20.606Z,8.93
2018-09-29T05:04:49.760Z,8.13
2018-09-29T05:07:18.883Z,6.50
2018-09-29T05:09:48.061Z,5.63
2018-09-29T05:12:17.144Z,6.45
2018-09-29T05:14:46.256Z,6.37
2018-09-29T05:17:15.427Z,5.67
2018-09-29T05:19:44.656Z,6.43
2018-09-29T05:22:13.772Z,10.57
2018-09-29T05:24:42.879Z,8.33
2018-09-29T05:27:12.029Z,7.83
2018-09-29T05:29:41.233Z,12.43
2018-09-29T05:32:10.685Z,6.17
2018-09-29T05:34:39.792Z,9.20
2018-09-29T05:37:08.932Z,8.23
2018-09-29T05:39:38.441Z,8.03
2018-09-29T05:42:07.617Z,12.00
2018-09-29T05:44:36.731Z,8.93
2018-09-29T05:47:06.044Z,7.50
2018-09-29T05:49:35.284Z,8.37
2018-09-29T05:52:04.568Z,4.23
2018-09-29T05:54:34.028Z,5.80
2018-09-29T05:57:03.331Z,11.47
2018-09-29T05:59:33.457Z,11.40
2018-09-29T06:02:02.986Z,9.43
2018-09-29T06:04:32.713Z,9.23
2018-09-29T06:07:02.124Z,6.67
2018-09-29T06:09:31.264Z,5.75
2018-09-29T06:12:00.379Z,10.95
2018-09-29T06:14:29.495Z,11.40
2018-09-29T06:16:58.667Z,10.07
2018-09-29T06:19:27.820Z,6.77
2018-09-29T06:21:57.152Z,7.37
2018-09-29T06:24:26.316Z,9.03
2018-09-29T06:26:55.622Z,8.35
2018-09-29T06:29:25.519Z,10.63
2018-09-29T06:31:54.689Z,10.07
2018-09-29T06:34:24.196Z,10.77
2018-09-29T06:36:53.414Z,7.35
2018-09-29T06:39:22.542Z,7.60
2018-09-29T06:41:51.705Z,10.47
2018-09-29T06:44:20.991Z,9.30
2018-09-29T06:46:50.149Z,11.70
2018-09-29T06:49:19.416Z,9.77
2018-09-29T06:51:48.612Z,13.22
2018-09-29T06:54:17.839Z,9.43
2018-09-29T06:56:48.124Z,8.63
2018-09-29T06:59:18.233Z,10.97
2018-09-29T07:01:47.504Z,7.37
2018-09-29T07:04:17.697Z,8.87
2018-09-29T07:06:47.094Z,15.43
2018-09-29T07:09:16.264Z,11.12
2018-09-29T07:11:45.420Z,10.65
2018-09-29T07:14:14.574Z,10.27
2018-09-29T07:16:43.696Z,11.73
2018-09-29T07:19:12.831Z,9.13
2018-09-29T07:21:42.236Z,17.57
2018-09-29T07:24:11.349Z,10.68
2018-09-29T07:26:40.554Z,9.53
2018-09-29T07:29:10.608Z,10.60
2018-09-29T07:31:40.039Z,9.77
2018-09-29T07:34:09.176Z,16.33
2018-09-29T07:36:38.560Z,12.53
2018-09-29T07:39:09.449Z,8.55
2018-09-29T07:41:38.592Z,10.13
2018-09-29T07:44:08.316Z,10.63
2018-09-29T07:46:37.496Z,10.33
2018-09-29T07:49:07.001Z,9.20
2018-09-29T07:51:36.149Z,9.90
2018-09-29T07:54:05.440Z,11.60
2018-09-29T07:56:34.597Z,11.70
2018-09-29T07:59:03.776Z,10.90
2018-09-29T08:01:34.285Z,9.78
2018-09-29T08:04:03.538Z,13.70
2018-09-29T08:06:32.760Z,12.87
2018-09-29T08:09:03.482Z,7.42
2018-09-29T08:11:32.816Z,10.93
2018-09-29T08:14:01.984Z,9.40
2018-09-29T08:16:31.141Z,9.90
2018-09-29T08:19:00.321Z,7.70
2018-09-29T08:21:29.458Z,13.53
2018-09-29T08:23:58.585Z,12.63
2018-09-29T08:26:27.894Z,7.73
2018-09-29T08:28:57.032Z,8.20
2018-09-29T08:31:26.172Z,8.60
2018-09-29T08:33:55.354Z,8.10
2018-09-29T08:36:24.516Z,9.65
2018-09-29T08:38:53.668Z,9.15
2018-09-29T08:41:22.833Z,12.43
2018-09-29T08:43:52.372Z,7.90
2018-09-29T08:46:21.552Z,9.27
2018-09-29T08:48:50.728Z,9.93
2018-09-29T08:51:19.913Z,12.57
2018-09-29T08:53:49.180Z,10.30
2018-09-29T08:56:18.260Z,6.97
2018-09-29T08:58:47.524Z,7.40
2018-09-29T09:01:16.913Z,7.27
2018-09-29T09:03:46.192Z,8.63
2018-09-29T09:06:15.393Z,7.07
2018-09-29T09:08:44.516Z,8.03
2018-09-29T09:11:13.685Z,11.13
2018-09-29T09:13:42.807Z,8.83
2018-09-29T09:16:11.997Z,4.17
2018-09-29T09:18:41.125Z,5.93
2018-09-29T09:21:10.284Z,9.43
2018-09-29T09:23:39.511Z,5.53
2018-09-29T09:26:09.248Z,8.30
2018-09-29T09:28:38.533Z,11.87
2018-09-29T09:31:08.212Z,11.53
2018-09-29T09:33:37.863Z,10.05
2018-09-29T09:36:08.161Z,6.80
2018-09-29T09:38:37.404Z,7.42
2018-09-29T09:41:06.640Z,10.73
2018-09-29T09:43:36.051Z,9.03
2018-09-29T09:46:05.975Z,12.27
2018-09-29T09:48:36.099Z,11.33
2018-09-29T09:51:05.365Z,5.63
2018-09-29T09:53:34.605Z,5.70
2018-09-29T09:56:03.906Z,8.67
2018-09-29T09:58:33.140Z,4.10
2018-09-29T10:01:07.684Z,8.47
2018-09-29T10:03:45.842Z,6.87
2018-09-29T10:06:15.018Z,4.67
2018-09-29T10:08:44.203Z,5.87
2018-09-29T10:11:17.708Z,3.40
2018-09-29T10:13:46.911Z,9.23
2018-09-29T10:16:16.080Z,6.92
2018-09-29T10:18:45.273Z,7.97
2018-09-29T10:21:14.453Z,6.73
2018-09-29T10:23:43.628Z,7.93
2018-09-29T10:26:12.785Z,3.87
2018-09-29T10:28:41.915Z,7.58
2018-09-29T10:31:11.079Z,9.27
2018-09-29T10:33:40.268Z,6.27
2018-09-29T10:36:09.507Z,5.07
2018-09-29T10:38:38.636Z,5.20
2018-09-29T10:41:07.899Z,4.78
2018-09-29T10:43:37.184Z,5.45
2018-09-29T10:46:06.452Z,3.08
2018-09-29T10:48:35.667Z,6.13
2018-09-29T10:51:04.840Z,5.20
2018-09-29T10:53:33.985Z,9.00
2018-09-29T10:56:03.172Z,4.53
2018-09-29T10:58:32.383Z,5.47
2018-09-29T11:01:01.568Z,8.10
2018-09-29T11:03:30.787Z,7.57
2018-09-29T11:05:59.938Z,6.30
2018-09-29T11:08:29.502Z,5.60
2018-09-29T11:10:58.632Z,4.13
2018-09-29T11:13:27.960Z,4.93
2018-09-29T11:15:57.522Z,5.50
2018-09-29T11:18:27.372Z,5.13
2018-09-29T11:20:56.729Z,6.13
2018-09-29T11:23:25.914Z,5.43
2018-09-29T11:28:36.988Z,7.70
2018-09-29T11:31:06.225Z,5.45
2018-09-29T11:33:36.639Z,4.45
2018-09-29T11:36:07.057Z,5.35
2018-09-29T11:38:36.483Z,8.70
2018-09-29T11:43:48.654Z,8.27
2018-09-29T11:46:18.649Z,2.57
2018-09-29T11:48:48.700Z,7.13
2018-09-29T11:51:18.154Z,2.40
2018-09-29T11:53:48.071Z,7.00
2018-09-29T11:56:17.544Z,4.30
2018-09-29T11:58:46.815Z,7.97
2018-09-29T12:03:54.943Z,4.90
2018-09-29T12:06:26.952Z,5.37
2018-09-29T12:08:56.673Z,5.87
2018-09-29T12:11:26.264Z,3.97
2018-09-29T12:13:55.760Z,7.73
2018-09-29T12:16:24.965Z,4.83
2018-09-29T12:18:54.121Z,5.50
2018-09-29T12:21:23.435Z,5.92
2018-09-29T12:23:52.580Z,3.77
2018-09-29T12:26:22.207Z,3.20
2018-09-29T12:28:51.453Z,6.07
2018-09-29T12:31:20.773Z,5.27
2018-09-29T12:33:49.931Z,2.57
2018-09-29T12:36:19.177Z,7.50
2018-09-29T12:38:48.304Z,1.97
2018-09-29T12:41:17.492Z,3.83
2018-09-29T12:43:46.707Z,7.93
2018-09-29T12:46:15.865Z,3.75
2018-09-29T12:48:45.013Z,4.40
2018-09-29T12:51:14.219Z,6.20
2018-09-29T12:53:43.797Z,4.63
2018-09-29T12:56:13.087Z,5.30
2018-09-29T12:58:42.265Z,4.80
2018-09-29T13:01:11.397Z,5.67
2018-09-29T13:03:40.565Z,6.75
2018-09-29T13:06:09.783Z,3.83
2018-09-29T13:08:39.045Z,6.53
2018-09-29T13:11:08.559Z,4.87
2018-09-29T13:16:18.865Z,5.30
2018-09-29T13:18:48.056Z,5.00
2018-09-29T13:21:17.304Z,2.50
2018-09-29T13:23:46.797Z,8.17
2018-09-29T13:26:15.951Z,2.00
2018-09-29T13:28:45.090Z,7.97
2018-09-29T13:31:14.243Z,2.00
2018-09-29T13:33:43.484Z,2.93
2018-09-29T13:36:18.801Z,4.40
2018-09-29T13:38:49.376Z,3.13
2018-09-29T13:41:18.529Z,3.30
2018-09-29T13:43:47.720Z,4.40
2018-09-29T13:46:16.917Z,3.50
2018-09-29T13:48:46.090Z,6.33
2018-09-29T13:51:15.216Z,3.07
2018-09-29T13:53:44.450Z,1.70
2018-09-29T13:56:13.572Z,4.80
2018-09-29T13:58:42.721Z,3.97
2018-09-29T14:01:12.264Z,4.00
2018-09-29T14:03:41.709Z,2.10
2018-09-29T14:06:10.912Z,3.02
2018-09-29T14:08:40.288Z,5.20
2018-09-29T14:11:09.412Z,4.85
2018-09-29T14:13:38.545Z,3.60
2018-09-29T14:16:07.864Z,3.90
2018-09-29T14:18:37.026Z,3.23
2018-09-29T14:21:06.301Z,4.23
2018-09-29T14:23:35.694Z,2.37
2018-09-29T14:26:04.895Z,5.47
2018-09-29T14:28:34.416Z,5.00
2018-09-29T14:31:03.521Z,2.73
2018-09-29T14:33:32.593Z,4.17
2018-09-29T14:36:01.739Z,4.93
2018-09-29T14:38:30.891Z,5.27
2018-09-29T14:41:00.024Z,2.33
2018-09-29T14:43:29.135Z,4.77
2018-09-29T14:45:58.436Z,5.30
2018-09-29T14:48:27.579Z,3.87
2018-09-29T14:50:57.786Z,3.67
2018-09-29T14:56:08.302Z,3.23
2018-09-29T14:58:37.712Z,5.20
2018-09-29T15:01:07.294Z,2.58
2018-09-29T15:03:36.436Z,7.40
2018-09-29T15:06:06.689Z,4.75
2018-09-29T15:08:35.936Z,2.60
2018-09-29T15:11:05.037Z,4.80
2018-09-29T15:13:34.209Z,4.63
2018-09-29T15:16:03.386Z,6.20
2018-09-29T15:18:32.524Z,5.40
2018-09-29T15:21:01.688Z,3.67
2018-09-29T15:23:30.851Z,2.67
2018-09-29T15:26:00.608Z,4.12
2018-09-29T15:28:30.405Z,7.40
2018-09-29T15:30:59.645Z,6.42
2018-09-29T15:33:28.799Z,5.93
2018-09-29T15:35:58.268Z,7.23
2018-09-29T15:38:27.474Z,3.43
2018-09-29T15:40:56.676Z,4.40
2018-09-29T15:43:25.935Z,5.00
2018-09-29T15:45:55.412Z,7.62
2018-09-29T15:48:24.543Z,4.93
2018-09-29T15:50:53.670Z,5.20
2018-09-29T15:53:22.852Z,5.60
2018-09-29T15:58:29.778Z,4.53
2018-09-29T16:00:59.032Z,3.65
2018-09-29T16:03:28.246Z,5.37
2018-09-29T16:05:57.370Z,4.33
2018-09-29T16:08:26.728Z,7.80
2018-09-29T16:10:56.072Z,7.63
2018-09-29T16:13:25.263Z,5.03
2018-09-29T16:15:54.385Z,3.22
2018-09-29T16:18:23.585Z,5.05
2018-09-29T16:20:52.849Z,4.53
2018-09-29T16:23:22.072Z,4.27
2018-09-29T16:25:51.208Z,4.83
2018-09-29T16:28:20.376Z,2.58
2018-09-29T16:30:49.756Z,4.90
2018-09-29T16:33:18.928Z,4.78
2018-09-29T16:35:48.160Z,4.80
2018-09-29T16:38:17.797Z,5.40
2018-09-29T16:40:47.133Z,5.23
2018-09-29T16:43:16.306Z,4.33
2018-09-29T16:45:45.545Z,4.17
2018-09-29T16:48:14.924Z,6.28
2018-09-29T16:50:44.191Z,5.93
2018-09-29T16:53:13.476Z,4.20
2018-09-29T16:55:42.823Z,6.15
2018-09-29T17:00:53.923Z,5.17
2018-09-29T17:03:23.930Z,8.63
2018-09-29T17:05:53.231Z,5.37
2018-09-29T17:08:22.498Z,7.97
2018-09-29T17:10:51.790Z,5.00
2018-09-29T17:13:21.980Z,5.93
2018-09-29T17:15:51.950Z,5.13
2018-09-29T17:18:21.109Z,4.87
2018-09-29T17:20:50.771Z,7.47
2018-09-29T17:23:19.905Z,4.17
2018-09-29T17:25:49.347Z,7.60
2018-09-29T17:28:18.669Z,6.07
2018-09-29T17:30:47.891Z,5.60
2018-09-29T17:33:17.035Z,5.43
2018-09-29T17:35:46.269Z,5.30
2018-09-29T17:38:15.441Z,5.90
2018-09-29T17:40:44.595Z,6.60
2018-09-29T17:43:13.819Z,7.37
2018-09-29T17:45:43.046Z,7.87
2018-09-29T17:48:12.396Z,7.27
2018-09-29T17:50:41.611Z,6.67
2018-09-29T17:53:10.818Z,7.27
2018-09-29T17:55:40.064Z,7.37
2018-09-29T17:58:09.200Z,7.27
2018-09-29T18:00:38.473Z,6.97
2018-09-29T18:03:07.698Z,9.07
2018-09-29T18:05:36.909Z,8.20
2018-09-29T18:08:06.412Z,6.80
2018-09-29T18:10:35.611Z,7.33
2018-09-29T18:13:04.825Z,10.40
2018-09-29T18:15:33.927Z,4.70
2018-09-29T18:18:03.172Z,10.03
2018-09-29T18:20:32.337Z,7.93
2018-09-29T18:23:01.574Z,6.77
2018-09-29T18:25:30.791Z,6.15
2018-09-29T18:28:00.170Z,5.20
2018-09-29T18:30:29.421Z,6.27
2018-09-29T18:32:58.568Z,8.97
2018-09-29T18:35:27.965Z,6.00
2018-09-29T18:37:57.123Z,5.07
2018-09-29T18:40:26.301Z,5.78
2018-09-29T18:42:55.502Z,8.23
2018-09-29T18:45:24.695Z,5.10
2018-09-29T18:47:53.917Z,5.70
2018-09-29T18:50:23.062Z,8.27
2018-09-29T18:52:52.509Z,5.57
2018-09-29T18:55:21.697Z,11.90
2018-09-29T18:57:52.995Z,6.93
2018-09-29T19:00:22.172Z,6.73
2018-09-29T19:02:51.308Z,6.43
2018-09-29T19:05:20.548Z,7.83
2018-09-29T19:07:49.845Z,10.25
2018-09-29T19:10:19.021Z,6.00
2018-09-29T19:12:48.347Z,8.73
2018-09-29T19:15:17.768Z,9.08
2018-09-29T19:17:47.047Z,7.70
2018-09-29T19:20:16.236Z,7.50
2018-09-29T19:22:45.592Z,9.33
2018-09-29T19:25:14.856Z,8.23
2018-09-29T19:27:45.024Z,10.03
2018-09-29T19:30:14.518Z,9.20
2018-09-29T19:32:44.664Z,6.53
2018-09-29T19:35:13.932Z,7.60
2018-09-29T19:37:43.200Z,10.27
2018-09-29T19:40:12.710Z,9.93
2018-09-29T19:42:42.123Z,8.03
2018-09-29T19:45:11.273Z,7.53
2018-09-29T19:47:40.437Z,11.13
2018-09-29T19:50:09.560Z,11.20
2018-09-29T19:52:38.753Z,10.50
2018-09-29T19:55:08.032Z,7.30
2018-09-29T19:57:37.277Z,9.63
2018-09-29T20:00:06.769Z,10.88
2018-09-29T20:02:35.977Z,12.53
2018-09-29T20:05:05.475Z,9.57
2018-09-29T20:07:34.697Z,7.83
2018-09-29T20:10:03.980Z,8.23
2018-09-29T20:12:33.131Z,10.40
2018-09-29T20:15:02.547Z,8.30
2018-09-29T20:17:33.726Z,11.15
2018-09-29T20:20:04.064Z,11.27
2018-09-29T20:22:33.197Z,7.47
2018-09-29T20:25:02.340Z,12.47
2018-09-29T20:27:31.510Z,12.30
2018-09-29T20:30:00.652Z,10.87
2018-09-29T20:32:33.685Z,10.83
2018-09-29T20:35:02.804Z,8.87
2018-09-29T20:37:31.951Z,12.87
2018-09-29T20:40:01.071Z,9.57
2018-09-29T20:42:30.219Z,10.95
2018-09-29T20:44:59.383Z,10.00
2018-09-29T20:47:28.574Z,10.00
2018-09-29T20:49:57.700Z,11.63
2018-09-29T20:52:26.925Z,12.43
2018-09-29T20:54:56.075Z,10.88
2018-09-29T20:57:25.337Z,11.17
2018-09-29T20:59:54.507Z,10.90
2018-09-29T21:02:23.848Z,11.07
2018-09-29T21:04:53.072Z,10.20
2018-09-29T21:07:22.188Z,9.27
2018-09-29T21:09:51.357Z,11.25
2018-09-29T21:12:20.496Z,9.67
2018-09-29T21:14:49.630Z,9.73
2018-09-29T21:17:18.738Z,9.27
2018-09-29T21:19:47.941Z,11.30
2018-09-29T21:22:17.168Z,9.03
2018-09-29T21:24:46.331Z,10.85
2018-09-29T21:27:15.461Z,8.93
2018-09-29T21:29:44.642Z,13.17
2018-09-29T21:32:13.761Z,10.57
2018-09-29T21:34:43.966Z,10.70
2018-09-29T21:37:13.429Z,10.93
2018-09-29T21:39:42.548Z,11.53
2018-09-29T21:42:11.752Z,12.58
2018-09-29T21:44:41.024Z,11.15
2018-09-29T21:47:10.781Z,10.85
2018-09-29T21:49:40.230Z,11.07
2018-09-29T21:52:09.563Z,11.93
2018-09-29T21:54:38.776Z,12.47
2018-09-29T21:57:07.903Z,11.53
2018-09-29T21:59:37.052Z,9.90
2018-09-29T22:02:06.603Z,11.83
2018-09-29T22:04:35.765Z,10.23
2018-09-29T22:07:05.119Z,8.67
2018-09-29T22:09:34.216Z,10.28
2018-09-29T22:12:03.424Z,13.23
2018-09-29T22:14:32.592Z,10.27
2018-09-29T22:17:01.709Z,10.60
2018-09-29T22:19:30.825Z,11.43
2018-09-29T22:22:00.128Z,9.90
2018-09-29T22:24:29.290Z,10.40
2018-09-29T22:26:58.397Z,10.63
2018-09-29T22:29:27.646Z,10.40
2018-09-29T22:31:56.825Z,10.07
2018-09-29T22:34:26.030Z,10.30
2018-09-29T22:36:55.210Z,10.37
2018-09-29T22:39:24.372Z,10.08
2018-09-29T22:41:53.600Z,9.10
2018-09-29T22:44:22.730Z,10.37
2018-09-29T22:46:51.861Z,10.83
2018-09-29T22:49:20.996Z,11.67
2018-09-29T22:51:50.204Z,13.33
2018-09-29T22:54:19.336Z,11.25
2018-09-29T22:56:48.555Z,9.23
2018-09-29T22:59:17.745Z,9.73
2018-09-29T23:01:46.911Z,10.23
2018-09-29T23:04:16.000Z,10.00
2018-09-29T23:06:45.119Z,7.67
2018-09-29T23:09:14.245Z,9.57
2018-09-29T23:11:43.431Z,10.25
2018-09-29T23:14:12.754Z,9.80
2018-09-29T23:16:41.810Z,8.63
2018-09-29T23:19:11.070Z,10.33
2018-09-29T23:21:40.132Z,10.30
2018-09-29T23:24:09.328Z,9.15
2018-09-29T23:26:38.439Z,9.80
2018-09-29T23:29:07.553Z,8.90
2018-09-29T23:31:36.740Z,9.03
2018-09-29T23:34:06.189Z,7.73
2018-09-29T23:36:35.295Z,10.93
2018-09-29T23:39:05.971Z,9.40
2018-09-29T23:41:35.097Z,10.77
2018-09-29T23:44:04.212Z,10.90
2018-09-29T23:46:33.357Z,8.33
2018-09-29T23:49:02.438Z,9.73
2018-09-29T23:51:31.568Z,10.78
2018-09-29T23:54:00.933Z,7.83
2018-09-29T23:56:30.104Z,8.50
2018-09-29T23:58:59.250Z,7.00
